Time;durP1;ratioP1;P1;durP2;ratioP2;P2;SDS_P1;SDS_P2;PMS_P1;PMS_P2;Temp;Humidity;BMP_temperature;BMP_pressure;BME280_temperature;BME280_humidity;BME280_pressure;Samples;Min_cycle;Max_cycle;Signal;HPM_P1;HPM_P2
2022/08/13 00:02:10;;;;;;;4.15;3.95;;;20.70;90.70;;;;;;5032978;28;20184;-63
2022/08/13 00:04:38;;;;;;;5.00;4.65;;;20.60;91.30;;;;;;5032867;28;20634;-63
2022/08/13 00:09:29;;;;;;;3.80;3.50;;;20.40;93.80;;;;;;5032956;28;20314;-64
2022/08/13 00:14:40;;;;;;;5.68;3.72;;;20.20;95.90;;;;;;5032595;28;20252;-62
2022/08/13 00:17:12;;;;;;;3.85;3.55;;;20.10;95.50;;;;;;5032696;28;20179;-63
2022/08/13 00:19:41;;;;;;;4.20;3.80;;;20.00;97.00;;;;;;5033175;28;20191;-63
2022/08/13 00:22:12;;;;;;;4.30;3.70;;;19.90;96.70;;;;;;5032551;28;20187;-63
2022/08/13 00:24:38;;;;;;;3.75;3.45;;;19.80;97.40;;;;;;5032474;28;20187;-63
2022/08/13 00:27:04;;;;;;;4.43;3.55;;;19.80;97.40;;;;;;5032550;28;20561;-63
2022/08/13 00:29:30;;;;;;;6.77;3.50;;;19.70;97.20;;;;;;5031671;28;20572;-64
2022/08/13 00:31:56;;;;;;;6.32;3.80;;;19.70;96.50;;;;;;5032430;28;20167;-64
2022/08/13 00:34:22;;;;;;;4.10;3.63;;;19.70;97.60;;;;;;5032199;28;20673;-63
2022/08/13 00:36:48;;;;;;;4.13;3.88;;;19.70;96.60;;;;;;5032478;28;20331;-63
2022/08/13 00:39:14;;;;;;;5.97;3.83;;;19.70;97.70;;;;;;5032291;28;20195;-63
2022/08/13 00:41:45;;;;;;;4.57;4.20;;;19.70;97.20;;;;;;5032448;28;20196;-62
2022/08/13 00:44:13;;;;;;;4.32;3.90;;;19.70;96.90;;;;;;5031927;28;20180;-64
2022/08/13 00:46:40;;;;;;;3.83;3.60;;;19.70;98.00;;;;;;5032521;28;20182;-64
2022/08/13 00:49:08;;;;;;;4.32;4.03;;;19.70;98.90;;;;;;5032478;28;20294;-63
2022/08/13 00:51:36;;;;;;;6.90;6.50;;;19.70;98.00;;;;;;5032060;28;20188;-63
2022/08/13 00:54:05;;;;;;;4.23;3.93;;;19.70;97.40;;;;;;5031836;28;20177;-63
2022/08/13 00:56:34;;;;;;;4.55;4.13;;;19.70;96.60;;;;;;5032022;28;20189;-63
2022/08/13 00:59:11;;;;;;;4.20;3.90;;;19.70;96.30;;;;;;5031870;28;20568;-63
2022/08/13 01:01:43;;;;;;;4.70;4.30;;;19.70;95.80;;;;;;5032006;28;20645;-64
2022/08/13 01:04:09;;;;;;;4.78;3.75;;;19.80;95.40;;;;;;5031634;28;20195;-63
2022/08/13 01:06:35;;;;;;;4.20;3.90;;;19.90;95.20;;;;;;5031849;28;20298;-65
2022/08/13 01:09:08;;;;;;;4.45;4.05;;;20.00;95.10;;;;;;5031813;28;20207;-63
2022/08/13 01:11:35;;;;;;;3.85;3.65;;;20.10;95.00;;;;;;5031896;28;20597;-64
2022/08/13 01:14:05;;;;;;;3.83;3.55;;;20.10;94.90;;;;;;5031481;28;20179;-64
2022/08/13 01:16:35;;;;;;;4.00;3.80;;;20.10;95.30;;;;;;5032032;28;20179;-62
2022/08/13 01:19:03;;;;;;;4.55;4.22;;;20.10;94.60;;;;;;5031649;28;20211;-63
2022/08/13 01:21:31;;;;;;;4.28;3.97;;;20.10;94.40;;;;;;5031678;28;20554;-62
2022/08/13 01:23:57;;;;;;;4.10;3.80;;;20.10;94.60;;;;;;5046864;28;20531;-63
2022/08/13 01:26:23;;;;;;;4.10;3.80;;;20.10;94.90;;;;;;5031552;28;20186;-64
2022/08/13 01:28:50;;;;;;;4.65;4.32;;;20.00;94.50;;;;;;5031366;28;20191;-64
2022/08/13 01:31:18;;;;;;;4.38;3.90;;;20.00;95.30;;;;;;5031666;28;20171;-64
2022/08/13 01:33:49;;;;;;;4.70;3.75;;;19.90;96.10;;;;;;5031030;28;20202;-64
2022/08/13 01:36:15;;;;;;;4.32;4.03;;;19.80;96.20;;;;;;5031603;28;20175;-64
2022/08/13 01:38:42;;;;;;;9.32;4.15;;;19.80;96.10;;;;;;5029608;28;20286;-64
2022/08/13 01:41:08;;;;;;;4.40;4.10;;;19.80;96.40;;;;;;5030470;28;20203;-64
2022/08/13 01:43:37;;;;;;;5.05;4.00;;;19.70;96.20;;;;;;5030230;28;20259;-64
2022/08/13 01:46:05;;;;;;;4.15;3.85;;;19.70;95.80;;;;;;5030681;28;20178;-64
2022/08/13 01:51:21;;;;;;;4.00;3.70;;;19.80;96.10;;;;;;5030862;28;20190;-63
2022/08/13 01:53:53;;;;;;;5.20;3.78;;;19.80;95.70;;;;;;5029934;28;20183;-64
2022/08/13 01:56:22;;;;;;;4.07;3.78;;;19.90;95.60;;;;;;5030520;28;20179;-64
2022/08/13 01:58:53;;;;;;;5.15;4.70;;;19.90;95.80;;;;;;5029979;28;20214;-64
2022/08/13 02:01:19;;;;;;;7.97;4.07;;;19.90;96.80;;;;;;5030503;28;20175;-63
2022/08/13 02:03:48;;;;;;;4.30;4.00;;;19.90;96.30;;;;;;5030369;28;20190;-64
2022/08/13 02:06:14;;;;;;;5.50;4.28;;;19.80;96.40;;;;;;5030260;28;20183;-64
2022/08/13 02:08:43;;;;;;;4.65;4.35;;;19.80;97.60;;;;;;5029614;28;20196;-64
2022/08/13 02:11:08;;;;;;;4.60;4.20;;;19.70;96.60;;;;;;5030398;28;20211;-64
2022/08/13 02:13:34;;;;;;;4.60;4.30;;;19.70;97.00;;;;;;5029942;28;20274;-64
2022/08/13 02:15:59;;;;;;;5.00;4.10;;;19.70;97.30;;;;;;5030038;28;20172;-64
2022/08/13 02:18:26;;;;;;;4.70;4.40;;;19.60;97.50;;;;;;5030207;28;20199;-64
2022/08/13 02:20:57;;;;;;;8.37;4.40;;;19.50;97.30;;;;;;5029748;28;20183;-64
2022/08/13 02:23:25;;;;;;;5.03;4.68;;;19.50;98.90;;;;;;5029275;28;20215;-64
2022/08/13 02:25:52;;;;;;;5.57;4.15;;;19.50;97.80;;;;;;5029792;28;20229;-64
2022/08/13 02:28:19;;;;;;;9.13;4.35;;;19.40;99.30;;;;;;5030164;28;20207;-65
2022/08/13 02:30:47;;;;;;;4.90;4.50;;;19.30;99.30;;;;;;5029592;28;20235;-65
2022/08/13 02:33:14;;;;;;;4.60;4.30;;;19.30;99.10;;;;;;5030074;28;20546;-64
2022/08/13 02:35:41;;;;;;;4.77;4.47;;;19.20;99.30;;;;;;5029540;28;20191;-64
2022/08/13 02:38:07;;;;;;;4.60;4.30;;;19.20;99.40;;;;;;5023313;28;20200;-69
2022/08/13 02:43:17;;;;;;;5.07;4.50;;;19.20;99.50;;;;;;5025478;28;20194;-69
2022/08/13 02:45:46;;;;;;;4.50;4.20;;;19.20;99.50;;;;;;5031211;28;20266;-68
2022/08/13 02:48:12;;;;;;;6.30;4.20;;;19.10;99.90;;;;;;5031745;28;20222;-68
2022/08/13 02:50:42;;;;;;;4.55;4.25;;;19.10;99.90;;;;;;5031480;28;20525;-70
2022/08/13 02:53:09;;;;;;;4.80;4.15;;;19.00;99.90;;;;;;5033631;28;20684;-70
2022/08/13 02:55:36;;;;;;;4.82;4.43;;;19.00;99.90;;;;;;5034040;28;20188;-69
2022/08/13 02:58:04;;;;;;;5.10;4.80;;;18.90;99.90;;;;;;5035539;28;20664;-68
2022/08/13 03:00:30;;;;;;;5.20;4.40;;;18.80;99.90;;;;;;5035434;28;20183;-69
2022/08/13 03:02:57;;;;;;;4.87;4.43;;;18.80;99.90;;;;;;5034683;28;20179;-65
2022/08/13 03:05:22;;;;;;;7.03;4.70;;;18.70;99.90;;;;;;5035250;28;20637;-68
2022/08/13 03:07:49;;;;;;;9.07;4.90;;;18.60;99.90;;;;;;5035471;28;20260;-67
2022/08/13 03:10:18;;;;;;;4.88;4.57;;;18.60;99.90;;;;;;5035476;28;20550;-71
2022/08/13 03:12:58;;;;;;;5.32;5.03;;;18.60;99.90;;;;;;5035130;28;20179;-68
2022/08/13 03:15:25;;;;;;;5.67;5.17;;;18.60;99.90;;;;;;5035215;28;20574;-68
2022/08/13 03:17:51;;;;;;;5.40;5.00;;;18.60;99.90;;;;;;5035054;28;20199;-70
2022/08/13 03:20:16;;;;;;;5.90;5.40;;;18.60;99.90;;;;;;5034162;28;20495;-63
2022/08/13 03:22:51;;;;;;;5.40;5.00;;;18.60;99.90;;;;;;5033942;28;20633;-64
2022/08/13 03:25:17;;;;;;;5.23;4.93;;;18.50;99.90;;;;;;5032661;28;20183;-64
2022/08/13 03:27:43;;;;;;;5.23;4.87;;;18.40;99.90;;;;;;5033867;28;20608;-63
2022/08/13 03:30:11;;;;;;;5.90;5.40;;;18.40;99.90;;;;;;5033502;28;20207;-64
2022/08/13 03:32:42;;;;;;;5.30;4.97;;;18.40;99.90;;;;;;5033800;28;20184;-64
2022/08/13 03:35:13;;;;;;;5.37;4.90;;;18.40;99.90;;;;;;5033208;28;20211;-64
2022/08/13 03:37:41;;;;;;;5.70;5.17;;;18.30;99.90;;;;;;5033740;28;20209;-63
2022/08/13 03:40:08;;;;;;;5.13;4.80;;;18.20;99.90;;;;;;5033551;28;20184;-64
2022/08/13 03:42:34;;;;;;;5.47;5.07;;;18.20;99.90;;;;;;5033725;28;20186;-64
2022/08/13 03:45:04;;;;;;;6.00;5.60;;;18.10;99.90;;;;;;5033151;28;20522;-63
2022/08/13 03:47:30;;;;;;;5.67;5.27;;;18.10;99.90;;;;;;5025820;28;20194;-64
2022/08/13 03:49:57;;;;;;;5.13;4.73;;;18.00;99.90;;;;;;5033323;28;20235;-64
2022/08/13 03:52:23;;;;;;;5.50;5.20;;;17.90;99.90;;;;;;5033578;28;20617;-64
2022/08/13 03:54:49;;;;;;;5.27;4.97;;;17.80;99.90;;;;;;5032878;28;20224;-64
2022/08/13 03:57:19;;;;;;;5.33;4.90;;;17.80;99.90;;;;;;5033245;28;20277;-64
2022/08/13 03:59:47;;;;;;;7.83;7.17;;;17.70;99.90;;;;;;5033159;28;20263;-63
2022/08/13 04:02:15;;;;;;;5.77;5.37;;;17.70;99.90;;;;;;5033069;28;20187;-64
2022/08/13 04:04:46;;;;;;;6.53;5.93;;;17.60;99.90;;;;;;5032876;28;20180;-64
2022/08/13 04:07:14;;;;;;;6.13;5.67;;;17.60;99.90;;;;;;5033112;28;20578;-64
2022/08/13 04:09:39;;;;;;;6.37;5.60;;;17.60;99.90;;;;;;5033053;28;20247;-63
2022/08/13 04:12:09;;;;;;;6.03;5.60;;;17.60;99.90;;;;;;5033008;28;20206;-63
2022/08/13 04:14:35;;;;;;;5.20;4.90;;;17.60;99.90;;;;;;5032515;28;20168;-63
2022/08/13 04:17:00;;;;;;;6.30;5.90;;;17.60;99.90;;;;;;5032864;28;20289;-63
2022/08/13 04:19:26;;;;;;;5.53;5.07;;;17.60;99.90;;;;;;5032745;28;20199;-63
2022/08/13 04:21:53;;;;;;;5.87;5.43;;;17.60;99.90;;;;;;5032821;28;20266;-63
2022/08/13 04:24:18;;;;;;;5.83;5.43;;;17.50;99.90;;;;;;5031614;28;20183;-63
2022/08/13 04:26:45;;;;;;;6.37;5.87;;;17.50;99.90;;;;;;5032659;28;20198;-63
2022/08/13 04:29:11;;;;;;;6.97;6.47;;;17.50;99.90;;;;;;5032571;28;20219;-62
2022/08/13 04:31:37;;;;;;;5.83;5.40;;;17.50;99.90;;;;;;5032508;28;20179;-64
2022/08/13 04:34:03;;;;;;;6.50;5.90;;;17.50;99.90;;;;;;5032033;28;20763;-64
2022/08/13 04:36:29;;;;;;;5.87;5.37;;;17.40;99.90;;;;;;5032534;28;20253;-63
2022/08/13 04:38:55;;;;;;;6.53;5.80;;;17.40;99.90;;;;;;5062600;22;20246;-63
2022/08/13 04:41:21;;;;;;;5.20;4.90;;;17.40;99.90;;;;;;5072609;28;20202;-64
2022/08/13 04:43:47;;;;;;;6.07;5.67;;;17.50;99.90;;;;;;5072324;28;20495;-65
2022/08/13 04:46:12;;;;;;;6.07;5.53;;;17.50;99.90;;;;;;5072423;28;20254;-65
2022/08/13 04:48:38;;;;;;;6.27;5.67;;;17.50;99.90;;;;;;5069611;28;20261;-65
2022/08/13 04:51:05;;;;;;;6.33;5.83;;;17.60;99.90;;;;;;5052542;28;20207;-65
2022/08/13 04:53:33;;;;;;;6.50;5.67;;;17.70;99.90;;;;;;5060313;28;20174;-65
2022/08/13 04:55:59;;;;;;;5.30;4.90;;;17.70;99.90;;;;;;5057522;28;20616;-64
2022/08/13 04:58:32;;;;;;;4.90;4.50;;;17.80;99.90;;;;;;5071224;28;20201;-63
2022/08/13 05:00:59;;;;;;;5.67;5.10;;;17.90;99.90;;;;;;5056447;28;20186;-65
2022/08/13 05:03:24;;;;;;;6.57;6.17;;;18.00;99.90;;;;;;5064627;28;20178;-66
2022/08/13 05:05:52;;;;;;;6.93;5.57;;;18.10;99.90;;;;;;5060348;28;20182;-65
2022/08/13 05:08:19;;;;;;;6.77;6.20;;;18.10;99.90;;;;;;5059315;28;20265;-64
2022/08/13 05:10:47;;;;;;;5.87;5.30;;;18.20;99.90;;;;;;5068797;28;20210;-65
2022/08/13 05:13:20;;;;;;;6.80;6.07;;;18.20;99.90;;;;;;5058439;28;20205;-65
2022/08/13 05:15:46;;;;;;;5.70;5.37;;;18.20;99.90;;;;;;5062635;28;20184;-65
2022/08/13 05:18:12;;;;;;;6.87;6.37;;;18.30;99.90;;;;;;5058055;28;20183;-64
2022/08/13 05:20:39;;;;;;;6.67;6.17;;;18.40;99.90;;;;;;5060719;28;20686;-65
2022/08/13 05:23:09;;;;;;;5.67;5.03;;;18.50;99.90;;;;;;5063169;28;20650;-65
2022/08/13 05:25:35;;;;;;;4.80;4.40;;;18.50;99.90;;;;;;5069951;28;20266;-65
2022/08/13 05:28:02;;;;;;;6.83;5.80;;;18.70;99.90;;;;;;5055635;28;20236;-66
2022/08/13 05:30:28;;;;;;;5.53;4.97;;;18.80;99.90;;;;;;5057104;28;20281;-65
2022/08/13 05:32:58;;;;;;;9.17;5.40;;;18.90;99.90;;;;;;5062524;28;20171;-64
2022/08/13 05:35:27;;;;;;;6.40;5.75;;;19.00;99.90;;;;;;5066060;28;20178;-65
2022/08/13 05:37:53;;;;;;;8.13;6.72;;;19.10;99.90;;;;;;5069623;28;20611;-65
2022/08/13 05:40:19;;;;;;;5.75;5.18;;;19.20;99.90;;;;;;5069914;28;20265;-65
2022/08/13 05:42:44;;;;;;;6.10;5.53;;;19.30;99.90;;;;;;5062960;28;20317;-63
2022/08/13 05:45:10;;;;;;;6.97;5.33;;;19.40;99.90;;;;;;5070870;28;20170;-65
2022/08/13 05:47:36;;;;;;;7.13;6.43;;;19.50;99.90;;;;;;5055491;28;20189;-64
2022/08/13 05:50:13;;;;;;;5.88;5.22;;;19.50;99.90;;;;;;5062393;28;20212;-65
2022/08/13 05:52:40;;;;;;;9.38;6.07;;;19.60;99.90;;;;;;5063296;28;20174;-64
2022/08/13 05:55:09;;;;;;;12.98;6.13;;;19.80;99.90;;;;;;5054236;28;20181;-65
2022/08/13 05:57:35;;;;;;;6.53;5.18;;;20.00;99.90;;;;;;5056083;28;20234;-64
2022/08/13 06:05:29;;;;;;;7.32;5.90;;;20.50;99.90;;;;;;5065291;28;20705;-65
2022/08/13 06:07:56;;;;;;;7.07;5.70;;;20.70;99.90;;;;;;5062066;28;20384;-66
2022/08/13 06:10:23;;;;;;;7.13;5.35;;;20.90;99.90;;;;;;5052676;28;20206;-65
2022/08/13 06:12:49;;;;;;;6.63;5.60;;;21.00;99.90;;;;;;5051397;28;20188;-64
2022/08/13 06:15:15;;;;;;;12.52;5.68;;;21.30;99.90;;;;;;5070280;28;20528;-66
2022/08/13 06:17:41;;;;;;;6.55;4.95;;;21.50;99.90;;;;;;5056690;28;20237;-65
2022/08/13 06:20:07;;;;;;;5.22;4.70;;;22.00;99.90;;;;;;5060807;28;20198;-66
2022/08/13 06:22:34;;;;;;;5.47;4.63;;;22.50;99.90;;;;;;5066685;28;20616;-65
2022/08/13 06:25:02;;;;;;;4.68;4.22;;;23.10;99.90;;;;;;5067270;28;20196;-64
2022/08/13 06:27:28;;;;;;;6.65;6.13;;;23.70;99.90;;;;;;5052848;28;20185;-65
2022/08/13 06:29:57;;;;;;;8.20;4.63;;;24.30;99.90;;;;;;5070293;28;20751;-64
2022/08/13 06:32:24;;;;;;;4.68;4.28;;;24.80;99.90;;;;;;5066549;28;20247;-65
2022/08/13 06:34:50;;;;;;;4.70;4.30;;;25.10;99.90;;;;;;5068569;28;20167;-65
2022/08/13 06:37:16;;;;;;;7.43;4.95;;;25.30;99.90;;;;;;5063569;28;20226;-64
2022/08/13 06:39:44;;;;;;;4.13;3.83;;;25.40;99.90;;;;;;5055133;28;20202;-66
2022/08/13 06:42:10;;;;;;;6.22;3.83;;;25.70;99.90;;;;;;5062851;28;20261;-64
2022/08/13 06:44:39;;;;;;;4.00;3.70;;;25.90;99.90;;;;;;5063229;28;20463;-65
2022/08/13 06:47:05;;;;;;;3.70;3.40;;;26.30;99.90;;;;;;5064519;28;20189;-65
2022/08/13 06:49:33;;;;;;;3.85;3.63;;;26.70;99.90;;;;;;5054842;28;20212;-66
2022/08/13 06:52:00;;;;;;;6.57;3.42;;;27.00;99.90;;;;;;5060962;28;20177;-65
2022/08/13 06:54:27;;;;;;;3.72;3.53;;;27.20;98.80;;;;;;5056700;28;20203;-66
2022/08/13 06:56:55;;;;;;;3.42;3.13;;;27.30;98.00;;;;;;5066967;28;20200;-65
2022/08/13 06:59:23;;;;;;;3.38;3.17;;;27.20;97.00;;;;;;5065992;28;20196;-65
2022/08/13 07:01:58;;;;;;;3.88;3.58;;;27.30;97.30;;;;;;5058120;28;20233;-66
2022/08/13 07:04:25;;;;;;;3.95;3.42;;;27.20;96.20;;;;;;5073566;28;20177;-66
2022/08/13 07:06:52;;;;;;;5.80;3.20;;;27.50;96.40;;;;;;5070387;28;20182;-65
2022/08/13 07:09:18;;;;;;;5.38;3.20;;;27.60;95.00;;;;;;5068657;28;20198;-65
2022/08/13 07:11:45;;;;;;;3.25;2.67;;;27.50;96.20;;;;;;5064467;28;20179;-65
2022/08/13 07:14:13;;;;;;;3.72;2.75;;;27.70;95.10;;;;;;5058796;28;20550;-65
2022/08/13 07:16:40;;;;;;;5.07;4.05;;;27.90;95.20;;;;;;5073576;28;20223;-65
2022/08/13 07:19:07;;;;;;;3.88;3.30;;;28.30;94.00;;;;;;5054123;28;20199;-65
2022/08/13 07:21:33;;;;;;;5.38;4.95;;;28.30;93.80;;;;;;5062380;28;20551;-65
2022/08/13 07:24:02;;;;;;;3.45;3.25;;;28.60;93.20;;;;;;5063004;28;20204;-66
2022/08/13 07:26:30;;;;;;;3.83;3.53;;;28.90;91.90;;;;;;5068211;28;20258;-65
2022/08/13 07:28:55;;;;;;;3.67;3.17;;;29.00;91.80;;;;;;5061770;28;20201;-65
2022/08/13 07:31:30;;;;;;;3.90;3.50;;;29.40;90.90;;;;;;5054338;28;20175;-67
2022/08/13 07:33:58;;;;;;;6.90;3.30;;;29.60;91.40;;;;;;5070176;28;20568;-64
2022/08/13 07:36:29;;;;;;;4.10;3.83;;;29.90;88.30;;;;;;5061690;28;20261;-64
2022/08/13 07:39:05;;;;;;;3.45;3.20;;;30.10;86.30;;;;;;5060795;28;20202;-65
2022/08/13 07:41:34;;;;;;;3.00;2.70;;;30.00;86.80;;;;;;5069399;28;20185;-66
2022/08/13 07:44:02;;;;;;;3.15;2.95;;;30.20;84.20;;;;;;5069191;28;20279;-65
2022/08/13 07:46:29;;;;;;;5.47;2.85;;;30.50;85.00;;;;;;5054294;28;20171;-64
2022/08/13 07:48:56;;;;;;;3.58;3.30;;;30.70;81.70;;;;;;5066522;28;20201;-65
2022/08/13 07:51:22;;;;;;;4.38;2.97;;;30.50;81.10;;;;;;5065478;28;20202;-65
2022/08/13 07:53:50;;;;;;;2.90;2.70;;;30.80;83.80;;;;;;5059353;28;20170;-65
2022/08/13 07:56:25;;;;;;;4.20;3.20;;;30.80;78.30;;;;;;5061332;28;20244;-66
2022/08/13 07:58:55;;;;;;;3.08;2.85;;;30.90;79.90;;;;;;5068934;28;20225;-65
2022/08/13 08:01:20;;;;;;;2.92;2.63;;;31.00;80.60;;;;;;5069409;28;20174;-65
2022/08/13 08:03:48;;;;;;;3.97;2.78;;;31.20;76.00;;;;;;5053398;28;20225;-64
2022/08/13 08:06:18;;;;;;;3.55;2.85;;;31.30;74.10;;;;;;5054545;28;20179;-65
2022/08/13 08:08:44;;;;;;;4.45;3.25;;;31.50;78.50;;;;;;5061496;28;20163;-65
2022/08/13 08:12:30;;;;;;;3.60;3.40;;;31.70;73.40;;;;;;5058012;28;20214;-65
2022/08/13 08:14:01;;;;;;;2.30;2.20;;;31.80;72.80;;;;;;5068587;28;20658;-66
2022/08/13 08:16:30;;;;;;;3.17;2.97;;;32.20;73.80;;;;;;5057828;28;20189;-65
2022/08/13 08:18:58;;;;;;;3.20;3.00;;;32.00;70.10;;;;;;5070961;28;20226;-66
2022/08/13 08:21:24;;;;;;;3.20;3.00;;;32.00;70.10;;;;;;5064770;28;20528;-64
2022/08/13 08:23:57;;;;;;;2.75;2.55;;;32.30;69.40;;;;;;5070440;28;20174;-65
2022/08/13 08:26:26;;;;;;;3.97;2.63;;;32.50;67.90;;;;;;5068102;28;20186;-64
2022/08/13 08:28:54;;;;;;;3.20;2.90;;;32.70;66.80;;;;;;5060913;28;20201;-62
2022/08/13 08:31:19;;;;;;;3.22;2.53;;;32.80;66.30;;;;;;5054308;28;20202;-64
2022/08/13 08:33:47;;;;;;;2.53;2.33;;;33.00;67.50;;;;;;5052577;28;20292;-64
2022/08/13 08:36:12;;;;;;;2.83;2.63;;;33.30;66.70;;;;;;5062511;28;20189;-65
2022/08/13 08:44:41;;;;;;;4.75;2.45;;;32.80;62.00;;;;;;5052964;28;20239;-65
2022/08/13 08:47:07;;;;;;;2.38;2.25;;;32.70;64.50;;;;;;5052731;28;20175;-64
2022/08/13 08:49:33;;;;;;;4.60;2.20;;;33.00;62.10;;;;;;5052010;28;20695;-64
2022/08/13 08:52:00;;;;;;;4.28;4.07;;;33.40;64.80;;;;;;5052705;28;20621;-64
2022/08/13 08:54:27;;;;;;;4.18;3.85;;;33.90;63.70;;;;;;5052463;28;20174;-65
2022/08/13 08:56:56;;;;;;;3.42;3.22;;;34.10;59.60;;;;;;5052706;28;20165;-65
2022/08/13 08:59:32;;;;;;;3.60;3.30;;;34.40;59.30;;;;;;5051834;28;20190;-64
2022/08/13 09:01:59;;;;;;;3.47;3.17;;;34.60;58.30;;;;;;5052665;28;20170;-64
2022/08/13 09:04:29;;;;;;;3.97;3.58;;;34.50;56.20;;;;;;5052308;28;20171;-65
2022/08/13 09:06:58;;;;;;;3.17;2.97;;;34.40;57.50;;;;;;5052466;28;20237;-64
2022/08/13 09:09:24;;;;;;;2.50;2.40;;;34.50;56.30;;;;;;5052431;28;20282;-65
2022/08/13 09:11:55;;;;;;;3.22;2.65;;;34.70;58.10;;;;;;5052571;28;20190;-65
2022/08/13 09:14:26;;;;;;;3.03;2.78;;;35.10;56.30;;;;;;5052671;28;20175;-65
2022/08/13 09:16:54;;;;;;;2.70;2.50;;;35.20;56.40;;;;;;5052498;28;20701;-65
2022/08/13 09:19:20;;;;;;;2.85;2.65;;;35.40;55.00;;;;;;5052389;28;20206;-65
2022/08/13 09:21:46;;;;;;;3.03;2.70;;;35.60;55.30;;;;;;5052351;28;20175;-65
2022/08/13 09:24:15;;;;;;;2.85;2.60;;;35.70;55.20;;;;;;5051407;28;20600;-65
2022/08/13 09:26:47;;;;;;;4.10;2.85;;;35.90;54.60;;;;;;5052280;28;20640;-64
2022/08/13 09:29:14;;;;;;;3.70;3.05;;;35.80;53.80;;;;;;5065727;28;20662;-64
2022/08/13 09:31:45;;;;;;;3.40;2.88;;;35.50;54.30;;;;;;5072222;28;20627;-65
2022/08/13 09:34:15;;;;;;;2.90;2.70;;;35.70;54.70;;;;;;5071802;28;20185;-65
2022/08/13 09:36:42;;;;;;;2.92;2.72;;;35.90;52.50;;;;;;5052084;28;20187;-64
2022/08/13 09:39:08;;;;;;;3.05;2.55;;;36.00;53.00;;;;;;5066450;28;20705;-65
2022/08/13 09:41:48;;;;;;;2.58;2.35;;;35.80;51.20;;;;;;5071242;28;20177;-65
2022/08/13 09:44:16;;;;;;;2.72;2.63;;;35.50;52.60;;;;;;5071596;28;20245;-65
2022/08/13 09:46:42;;;;;;;6.22;2.80;;;35.30;50.90;;;;;;5071830;28;20532;-65
2022/08/13 09:49:11;;;;;;;3.00;2.90;;;34.90;51.80;;;;;;5071373;28;20698;-66
2022/08/13 09:51:37;;;;;;;3.20;3.00;;;34.90;53.00;;;;;;5070941;28;20280;-66
2022/08/13 09:54:05;;;;;;;2.85;2.65;;;35.10;51.80;;;;;;5071382;28;20538;-65
2022/08/13 09:56:32;;;;;;;4.20;2.90;;;35.00;51.00;;;;;;5071974;28;20166;-65
2022/08/13 09:58:59;;;;;;;4.70;3.17;;;34.90;49.90;;;;;;5071452;28;20225;-64
2022/08/13 10:01:24;;;;;;;5.07;3.08;;;35.00;51.10;;;;;;5071640;28;20166;-66
2022/08/13 10:03:50;;;;;;;3.10;2.90;;;35.00;51.40;;;;;;5071248;28;20181;-64
2022/08/13 10:06:18;;;;;;;3.15;2.97;;;34.90;50.40;;;;;;5071713;28;20166;-65
2022/08/13 10:08:46;;;;;;;2.88;2.67;;;35.00;51.60;;;;;;5071540;28;20181;-66
2022/08/13 10:11:13;;;;;;;2.80;2.70;;;35.20;51.10;;;;;;5071283;28;20266;-66
2022/08/13 10:13:38;;;;;;;2.45;2.35;;;35.50;52.50;;;;;;5071346;28;20163;-66
2022/08/13 10:16:04;;;;;;;2.67;2.45;;;35.70;51.00;;;;;;5071534;28;20170;-65
2022/08/13 10:18:31;;;;;;;2.60;2.40;;;35.80;49.30;;;;;;5071486;28;20174;-66
2022/08/13 10:20:57;;;;;;;2.85;2.65;;;35.70;49.70;;;;;;5071406;28;20174;-65
2022/08/13 10:23:23;;;;;;;2.80;2.60;;;35.50;49.80;;;;;;5071406;28;20201;-65
2022/08/13 10:25:52;;;;;;;3.38;2.50;;;35.70;49.90;;;;;;5071438;28;20174;-66
2022/08/13 10:28:26;;;;;;;3.47;2.42;;;36.00;50.50;;;;;;5071509;28;20167;-65
2022/08/13 10:30:54;;;;;;;3.05;2.70;;;36.10;48.50;;;;;;5071334;28;20243;-64
2022/08/13 10:33:21;;;;;;;3.20;2.53;;;36.30;49.50;;;;;;5071475;28;20290;-66
2022/08/13 10:35:55;;;;;;;2.60;2.50;;;36.30;49.10;;;;;;5071293;28;20181;-65
2022/08/13 10:38:26;;;;;;;3.35;2.78;;;36.20;49.30;;;;;;5071664;28;20174;-65
2022/08/13 10:40:53;;;;;;;3.40;2.65;;;36.30;50.30;;;;;;5084205;22;20225;-64
2022/08/13 10:43:19;;;;;;;5.45;3.58;;;36.50;49.30;;;;;;5071339;28;20228;-64
2022/08/13 10:45:46;;;;;;;4.07;3.72;;;36.40;48.50;;;;;;5070976;28;20174;-64
2022/08/13 10:48:12;;;;;;;2.80;2.60;;;36.50;48.10;;;;;;5071178;28;20594;-64
2022/08/13 10:50:40;;;;;;;2.60;2.42;;;36.60;48.40;;;;;;5071119;28;20268;-64
2022/08/13 10:53:06;;;;;;;2.63;2.42;;;36.80;49.10;;;;;;5071005;28;20266;-65
2022/08/13 10:55:34;;;;;;;2.95;2.60;;;37.00;46.20;;;;;;5070827;28;20173;-64
2022/08/13 10:57:59;;;;;;;2.72;2.63;;;37.00;46.40;;;;;;5071081;28;20178;-64
2022/08/13 11:00:25;;;;;;;2.70;2.60;;;37.10;47.50;;;;;;5070952;28;20194;-64
2022/08/13 11:02:51;;;;;;;3.65;3.45;;;37.20;45.10;;;;;;5070987;28;20192;-64
2022/08/13 11:05:25;;;;;;;3.38;3.10;;;37.20;45.80;;;;;;5070552;28;20267;-64
2022/08/13 11:07:52;;;;;;;3.20;2.90;;;37.10;45.90;;;;;;5070868;28;20161;-64
2022/08/13 11:10:20;;;;;;;6.22;3.70;;;37.10;45.00;;;;;;5070767;28;20732;-64
2022/08/13 11:12:50;;;;;;;2.80;2.60;;;37.00;45.20;;;;;;5071143;28;20253;-64
2022/08/13 11:15:20;;;;;;;2.55;2.35;;;37.00;43.70;;;;;;5074211;28;20177;-64
2022/08/13 11:17:48;;;;;;;2.72;2.63;;;37.10;44.50;;;;;;5074439;28;20249;-64
2022/08/13 11:20:17;;;;;;;2.03;1.92;;;37.40;45.50;;;;;;5074473;28;20686;-64
2022/08/13 11:22:43;;;;;;;3.25;3.05;;;38.00;44.10;;;;;;5074552;28;20194;-64
2022/08/13 11:25:08;;;;;;;2.47;2.38;;;37.90;42.60;;;;;;5073935;28;20173;-64
2022/08/13 11:27:35;;;;;;;2.50;2.30;;;37.50;43.90;;;;;;5074394;28;20168;-64
2022/08/13 11:30:01;;;;;;;2.40;2.20;;;37.00;43.70;;;;;;5074136;28;20214;-64
2022/08/13 11:32:27;;;;;;;2.65;2.50;;;37.10;43.20;;;;;;5074322;28;20182;-64
2022/08/13 11:34:52;;;;;;;3.47;3.17;;;37.10;42.90;;;;;;5074250;28;20580;-64
2022/08/13 11:37:18;;;;;;;2.53;2.33;;;37.20;42.70;;;;;;5074215;28;20223;-64
2022/08/13 11:39:44;;;;;;;3.10;2.90;;;37.10;43.60;;;;;;5074107;28;20213;-64
2022/08/13 11:42:09;;;;;;;2.65;2.45;;;37.20;43.10;;;;;;5074246;28;20174;-64
2022/08/13 11:44:35;;;;;;;4.63;2.85;;;37.20;42.30;;;;;;5074133;28;20178;-64
2022/08/13 11:47:00;;;;;;;6.32;4.07;;;37.30;42.90;;;;;;5072720;28;20532;-64
2022/08/13 11:49:26;;;;;;;2.70;2.50;;;37.80;43.20;;;;;;5073965;28;20210;-64
2022/08/13 11:51:51;;;;;;;3.80;3.50;;;38.20;41.20;;;;;;5073979;28;20643;-64
2022/08/13 11:54:19;;;;;;;2.30;2.20;;;38.30;41.60;;;;;;5073528;28;20170;-64
2022/08/13 11:56:45;;;;;;;2.65;2.45;;;37.90;40.20;;;;;;5073908;28;20178;-64
2022/08/13 11:59:11;;;;;;;2.67;2.47;;;37.60;40.60;;;;;;5073680;28;20672;-63
2022/08/13 12:01:36;;;;;;;3.08;2.35;;;37.60;41.20;;;;;;5074236;28;20611;-64
2022/08/13 12:04:02;;;;;;;2.67;2.55;;;37.50;40.20;;;;;;5073417;28;20172;-65
2022/08/13 12:06:28;;;;;;;2.80;2.60;;;37.60;41.80;;;;;;5073879;28;20524;-64
2022/08/13 12:08:54;;;;;;;2.63;2.53;;;37.40;41.40;;;;;;5072593;28;20185;-64
2022/08/13 12:11:19;;;;;;;2.83;2.63;;;37.40;40.60;;;;;;5073127;28;20202;-64
2022/08/13 12:13:45;;;;;;;3.35;3.17;;;37.30;41.20;;;;;;5073216;28;20166;-64
2022/08/13 12:16:10;;;;;;;3.70;2.72;;;37.50;39.80;;;;;;5060968;28;20324;-64
2022/08/13 12:18:36;;;;;;;3.30;3.10;;;37.60;41.20;;;;;;5062742;28;20178;-64
2022/08/13 12:21:01;;;;;;;2.35;2.15;;;37.90;41.10;;;;;;5071625;28;20198;-65
2022/08/13 12:23:27;;;;;;;2.28;1.92;;;38.50;39.90;;;;;;5071833;28;20185;-64
2022/08/13 12:25:53;;;;;;;2.08;1.98;;;39.00;40.10;;;;;;5063334;28;20542;-64
2022/08/13 12:28:22;;;;;;;2.22;2.05;;;39.40;40.40;;;;;;5068335;28;20186;-64
2022/08/13 12:30:51;;;;;;;2.20;2.05;;;39.80;40.30;;;;;;5072198;28;20293;-64
2022/08/13 12:33:17;;;;;;;2.63;2.42;;;39.50;37.30;;;;;;5072688;28;20189;-64
2022/08/13 12:35:44;;;;;;;2.17;2.08;;;39.00;37.30;;;;;;5072346;28;20202;-64
2022/08/13 12:38:12;;;;;;;3.15;2.30;;;38.50;39.00;;;;;;5072330;28;20175;-64
2022/08/13 12:40:39;;;;;;;2.80;2.33;;;38.60;38.70;;;;;;5072250;28;20218;-64
2022/08/13 12:43:05;;;;;;;2.60;2.30;;;38.70;37.20;;;;;;5072189;28;20189;-64
2022/08/13 12:45:32;;;;;;;2.42;2.20;;;38.90;37.10;;;;;;5072273;28;20189;-64
2022/08/13 12:48:06;;;;;;;2.30;2.10;;;39.00;38.90;;;;;;5071965;28;20178;-64
2022/08/13 12:50:33;;;;;;;2.60;2.10;;;39.10;37.50;;;;;;5072378;28;20292;-64
2022/08/13 12:52:59;;;;;;;2.20;2.10;;;39.20;37.10;;;;;;5072091;28;20557;-64
2022/08/13 12:55:24;;;;;;;2.42;2.10;;;39.20;36.50;;;;;;5071959;28;20246;-65
2022/08/13 12:57:50;;;;;;;2.22;2.03;;;39.10;36.80;;;;;;5072076;28;20175;-64
2022/08/13 13:00:16;;;;;;;2.08;1.98;;;38.80;36.10;;;;;;5072552;28;20198;-64
2022/08/13 13:02:42;;;;;;;3.17;3.03;;;38.60;37.60;;;;;;5068653;28;20190;-65
2022/08/13 13:05:08;;;;;;;2.72;2.53;;;38.50;37.40;;;;;;5071104;28;20178;-64
2022/08/13 13:07:33;;;;;;;2.08;1.98;;;38.50;38.20;;;;;;5072289;28;20204;-64
2022/08/13 13:09:59;;;;;;;2.30;2.20;;;38.50;36.70;;;;;;5071870;28;20202;-64
2022/08/13 13:12:28;;;;;;;6.10;2.20;;;38.40;36.60;;;;;;5072237;28;20655;-64